Aviation WX

[Source: ADDS]
METAR
KFKL 261635Z 30008G14KT 10SM BKN008 BKN019 OVC030 13/11 A2983 RMK AO1 =
TAF
KFKL 261129Z 2612/2712 26008KT 5SM -SHRA OVC006 FM261400 27008KT P6SM VCSH OVC008 FM261600 27009KT P6SM OVC010 FM262000 28009KT P6SM BKN020 FM270000 29004KT P6SM BKN025 AMD LTD TO CLD VIS AND WIND =